^^
Saratoga-Weather Station Historical Data
Daily Summary for October 10, 2020 Units:  Both    English   Metric
Daily Weekly Monthly Yearly Custom
  High: Low: Average:
Temperature: 55.4 °F /  13 °C 45.5 °F /  7.5 °C 50.4 °F /  10.2 °C
Dew Point: 49.1 °F /  9.5 °C 39.4 °F /  4.1 °C 44.6 °F /  7 °C
Humidity: 94% 56% 82%
Wind Speed: 10.1mph /  16.3km/h - 3.2mph /  5.1km/h
Wind Gust: 14mph /  22.5km/h - -
Wind- - West
Pressure: 30.2 in /  1022.7 hPa 30.1 in /  1018.6 hPa -
Precipitation: 0 in /  0.0 mm    
Historical Graphs
 
 
Tabular Data for October 10, 2020
Time Temperature Dew Point Pressure Wind Wind Speed Wind Gust Humidity Rainfall Rate (Hourly) solar
00:01 50.5 °F /  10.3 °C 48.9 °F /  9.4 °C 30.1in /  1019.0hPa West 2mph /  3.2km/h 4mph /  6.4km/h 94% 0in /  0.0mm 0 W/m2
00:06 50.5 °F /  10.3 °C 48.9 °F /  9.4 °C 30.1in /  1019.0hPa SW 2mph /  3.2km/h 3mph /  4.8km/h 94% 0in /  0.0mm 0 W/m2
00:11 50.5 °F /  10.3 °C 48.9 °F /  9.4 °C 30.1in /  1019.0hPa West 2.9mph /  4.7km/h 4mph /  6.4km/h 94% 0in /  0.0mm 0 W/m2
00:16 50.7 °F /  10.4 °C 49.1 °F /  9.5 °C 30.1in /  1019.0hPa WNW 2mph /  3.2km/h 3mph /  4.8km/h 94% 0in /  0.0mm 0 W/m2
00:21 50.5 °F /  10.3 °C 48.9 °F /  9.4 °C 30.1in /  1019.0hPa WSW 2.9mph /  4.7km/h 6mph /  9.7km/h 94% 0in /  0.0mm 0 W/m2
00:26 50.7 °F /  10.4 °C 49.1 °F /  9.5 °C 30.1in /  1019.0hPa WSW 2mph /  3.2km/h 3mph /  4.8km/h 94% 0in /  0.0mm 0 W/m2
00:31 50.7 °F /  10.4 °C 49.1 °F /  9.5 °C 30.1in /  1019.0hPa West 2.9mph /  4.7km/h 8mph /  12.9km/h 94% 0in /  0.0mm 0 W/m2
00:36 50.7 °F /  10.4 °C 49.1 °F /  9.5 °C 30.1in /  1019.0hPa WNW 4mph /  6.4km/h 4mph /  6.4km/h 94% 0in /  0.0mm 0 W/m2
00:41 50.9 °F /  10.5 °C 48.9 °F /  9.4 °C 30.1in /  1019.0hPa WNW 4mph /  6.4km/h 8mph /  12.9km/h 93% 0in /  0.0mm 0 W/m2
00:46 51.1 °F /  10.6 °C 49.1 °F /  9.5 °C 30.1in /  1019.0hPa West 2mph /  3.2km/h 4mph /  6.4km/h 93% 0in /  0.0mm 0 W/m2
00:51 50.9 °F /  10.5 °C 48.9 °F /  9.4 °C 30.1in /  1019.0hPa West 5mph /  8km/h 5mph /  8km/h 93% 0in /  0.0mm 0 W/m2
00:56 50.7 °F /  10.4 °C 48.7 °F /  9.3 °C 30.1in /  1018.6hPa WNW 0.9mph /  1.4km/h 4mph /  6.4km/h 93% 0in /  0.0mm 0 W/m2
01:01 50.5 °F /  10.3 °C 48.6 °F /  9.2 °C 30.1in /  1018.6hPa Calm   4mph /  6.4km/h 93% 0in /  0.0mm 0 W/m2
01:06 50.5 °F /  10.3 °C 48.6 °F /  9.2 °C 30.1in /  1018.6hPa West 2mph /  3.2km/h 4mph /  6.4km/h 93% 0in /  0.0mm 0 W/m2
01:11 50.5 °F /  10.3 °C 48.6 °F /  9.2 °C 30.1in /  1018.6hPa WSW 2.9mph /  4.7km/h 4mph /  6.4km/h 93% 0in /  0.0mm 0 W/m2
01:16 50.5 °F /  10.3 °C 48.6 °F /  9.2 °C 30.1in /  1019.0hPa WNW 0.9mph /  1.4km/h 2mph /  3.2km/h 93% 0in /  0.0mm 0 W/m2
01:21 50.4 °F /  10.2 °C 48.4 °F /  9.1 °C 30.1in /  1018.6hPa Calm   2mph /  3.2km/h 93% 0in /  0.0mm 0 W/m2
01:26 50.2 °F /  10.1 °C 48.2 °F /  9 °C 30.1in /  1019.0hPa Calm   4mph /  6.4km/h 93% 0in /  0.0mm 0 W/m2
01:31 50.2 °F /  10.1 °C 48.2 °F /  9 °C 30.1in /  1019.0hPa West 0.9mph /  1.4km/h 3mph /  4.8km/h 93% 0in /  0.0mm 0 W/m2
01:36 50.2 °F /  10.1 °C 48.2 °F /  9 °C 30.1in /  1019.0hPa WNW 2mph /  3.2km/h 3mph /  4.8km/h 93% 0in /  0.0mm 0 W/m2
01:41 50 °F /  10 °C 48 °F /  8.9 °C 30.1in /  1019.0hPa Calm     93% 0in /  0.0mm 0 W/m2
01:46 49.8 °F /  9.9 °C 47.8 °F /  8.8 °C 30.1in /  1019.0hPa WSW 0.9mph /  1.4km/h 4mph /  6.4km/h 93% 0in /  0.0mm 0 W/m2
01:51 49.8 °F /  9.9 °C 48.2 °F /  9 °C 30.1in /  1019.0hPa NW 2mph /  3.2km/h 5mph /  8km/h 94% 0in /  0.0mm 0 W/m2
01:56 49.8 °F /  9.9 °C 48.2 °F /  9 °C 30.1in /  1019.0hPa West 6.9mph /  11.1km/h 7mph /  11.3km/h 94% 0in /  0.0mm 0 W/m2
02:01 50 °F /  10 °C 48.4 °F /  9.1 °C 30.1in /  1019.0hPa WNW 2mph /  3.2km/h 5mph /  8km/h 94% 0in /  0.0mm 0 W/m2
02:06 50.2 °F /  10.1 °C 48.6 °F /  9.2 °C 30.1in /  1018.6hPa West 2.9mph /  4.7km/h 7mph /  11.3km/h 94% 0in /  0.0mm 0 W/m2
02:11 50.2 °F /  10.1 °C 48.6 °F /  9.2 °C 30.1in /  1019.0hPa WNW 4mph /  6.4km/h 5mph /  8km/h 94% 0in /  0.0mm 0 W/m2
02:16 50.2 °F /  10.1 °C 48.2 °F /  9 °C 30.1in /  1019.0hPa WNW 0.9mph /  1.4km/h 4mph /  6.4km/h 93% 0in /  0.0mm 0 W/m2
02:21 50.2 °F /  10.1 °C 48.2 °F /  9 °C 30.1in /  1019.0hPa WNW 0.9mph /  1.4km/h 3mph /  4.8km/h 93% 0in /  0.0mm 0 W/m2
02:26 50.2 °F /  10.1 °C 48.2 °F /  9 °C 30.1in /  1019.0hPa West 0.9mph /  1.4km/h 2mph /  3.2km/h 93% 0in /  0.0mm 0 W/m2
02:31 50.2 °F /  10.1 °C 48.2 °F /  9 °C 30.1in /  1019.0hPa Calm   4mph /  6.4km/h 93% 0in /  0.0mm 0 W/m2
02:36 50 °F /  10 °C 48 °F /  8.9 °C 30.1in /  1019.0hPa WNW 0.9mph /  1.4km/h 4mph /  6.4km/h 93% 0in /  0.0mm 0 W/m2
02:41 50.2 °F /  10.1 °C 48.2 °F /  9 °C 30.1in /  1019.0hPa West 2.9mph /  4.7km/h 4mph /  6.4km/h 93% 0in /  0.0mm 0 W/m2
02:46 50.2 °F /  10.1 °C 48.2 °F /  9 °C 30.1in /  1019.0hPa West 2mph /  3.2km/h 4mph /  6.4km/h 93% 0in /  0.0mm 0 W/m2
02:52 50.2 °F /  10.1 °C 48.2 °F /  9 °C 30.1in /  1019.0hPa West 0.9mph /  1.4km/h 3mph /  4.8km/h 93% 0in /  0.0mm 0 W/m2
02:57 50.2 °F /  10.1 °C 48.2 °F /  9 °C 30.1in /  1019.0hPa West 2mph /  3.2km/h 4mph /  6.4km/h 93% 0in /  0.0mm 0 W/m2
03:02 50.2 °F /  10.1 °C 48.2 °F /  9 °C 30.1in /  1019.0hPa West 0.9mph /  1.4km/h 6mph /  9.7km/h 93% 0in /  0.0mm 0 W/m2
03:07 50.2 °F /  10.1 °C 48 °F /  8.9 °C 30.1in /  1019.0hPa Calm   3mph /  4.8km/h 92% 0in /  0.0mm 0 W/m2
03:12 50.2 °F /  10.1 °C 48 °F /  8.9 °C 30.1in /  1019.0hPa West 2.9mph /  4.7km/h 6mph /  9.7km/h 92% 0in /  0.0mm 0 W/m2
03:17 50.2 °F /  10.1 °C 48 °F /  8.9 °C 30.1in /  1019.0hPa WNW 2.9mph /  4.7km/h 3mph /  4.8km/h 92% 0in /  0.0mm 0 W/m2
03:22 50.2 °F /  10.1 °C 48 °F /  8.9 °C 30.1in /  1019.0hPa West 0.9mph /  1.4km/h 6mph /  9.7km/h 92% 0in /  0.0mm 0 W/m2
03:27 50.2 °F /  10.1 °C 48 °F /  8.9 °C 30.1in /  1019.0hPa WNW 2mph /  3.2km/h 4mph /  6.4km/h 92% 0in /  0.0mm 0 W/m2
03:32 50.2 °F /  10.1 °C 48 °F /  8.9 °C 30.1in /  1019.0hPa WSW 0.9mph /  1.4km/h 4mph /  6.4km/h 92% 0in /  0.0mm 0 W/m2
03:37 50.2 °F /  10.1 °C 48 °F /  8.9 °C 30.1in /  1019.0hPa West 2.9mph /  4.7km/h 4mph /  6.4km/h 92% 0in /  0.0mm 0 W/m2
03:42 50 °F /  10 °C 48 °F /  8.9 °C 30.1in /  1019.0hPa West 6mph /  9.7km/h 6mph /  9.7km/h 93% 0in /  0.0mm 0 W/m2
03:47 50 °F /  10 °C 47.8 °F /  8.8 °C 30.1in /  1019.0hPa WSW 6.9mph /  11.1km/h 7mph /  11.3km/h 92% 0in /  0.0mm 0 W/m2
03:52 50.2 °F /  10.1 °C 48 °F /  8.9 °C 30.1in /  1019.0hPa WSW 2.9mph /  4.7km/h 6mph /  9.7km/h 92% 0in /  0.0mm 0 W/m2
03:57 50.4 °F /  10.2 °C 48.2 °F /  9 °C 30.1in /  1019.0hPa SW 8.1mph /  13km/h 8mph /  12.9km/h 92% 0in /  0.0mm 0 W/m2
04:02 50.4 °F /  10.2 °C 48.2 °F /  9 °C 30.1in /  1019.0hPa WNW 2mph /  3.2km/h 6mph /  9.7km/h 92% 0in /  0.0mm 0 W/m2
04:07 50.5 °F /  10.3 °C 48 °F /  8.9 °C 30.1in /  1019.0hPa West 6mph /  9.7km/h 9mph /  14.5km/h 91% 0in /  0.0mm 0 W/m2
04:12 50.5 °F /  10.3 °C 48 °F /  8.9 °C 30.1in /  1019.0hPa NW 0.9mph /  1.4km/h 8mph /  12.9km/h 91% 0in /  0.0mm 0 W/m2
04:17 50.5 °F /  10.3 °C 48 °F /  8.9 °C 30.1in /  1019.0hPa West 0.9mph /  1.4km/h 9mph /  14.5km/h 91% 0in /  0.0mm 0 W/m2
04:22 50.5 °F /  10.3 °C 48 °F /  8.9 °C 30.1in /  1019.0hPa WSW 2mph /  3.2km/h 3mph /  4.8km/h 91% 0in /  0.0mm 0 W/m2
04:27 50.4 °F /  10.2 °C 47.8 °F /  8.8 °C 30.1in /  1019.0hPa WSW 0.9mph /  1.4km/h 5mph /  8km/h 91% 0in /  0.0mm 0 W/m2
04:32 50.4 °F /  10.2 °C 48.2 °F /  9 °C 30.1in /  1019.0hPa West 0.9mph /  1.4km/h 6mph /  9.7km/h 92% 0in /  0.0mm 0 W/m2
04:37 50.4 °F /  10.2 °C 48.2 °F /  9 °C 30.1in /  1019.0hPa WSW 2mph /  3.2km/h 5mph /  8km/h 92% 0in /  0.0mm 0 W/m2
04:42 50.2 °F /  10.1 °C 48 °F /  8.9 °C 30.1in /  1019.0hPa WSW 2mph /  3.2km/h 8mph /  12.9km/h 92% 0in /  0.0mm 0 W/m2
04:47 50.2 °F /  10.1 °C 48 °F /  8.9 °C 30.1in /  1019.0hPa WNW 4mph /  6.4km/h 6mph /  9.7km/h 92% 0in /  0.0mm 0 W/m2
04:52 50.2 °F /  10.1 °C 48 °F /  8.9 °C 30.1in /  1019.0hPa WSW 4mph /  6.4km/h 7mph /  11.3km/h 92% 0in /  0.0mm 0 W/m2
04:57 50.2 °F /  10.1 °C 48 °F /  8.9 °C 30.1in /  1019.0hPa WNW 4.9mph /  7.9km/h 7mph /  11.3km/h 92% 0in /  0.0mm 0 W/m2
05:02 50.2 °F /  10.1 °C 48 °F /  8.9 °C 30.1in /  1019.0hPa WNW 0.9mph /  1.4km/h 7mph /  11.3km/h 92% 0in /  0.0mm 0 W/m2
05:07 50.2 °F /  10.1 °C 48 °F /  8.9 °C 30.1in /  1019.0hPa West 2mph /  3.2km/h 7mph /  11.3km/h 92% 0in /  0.0mm 0 W/m2
05:12 50.2 °F /  10.1 °C 48 °F /  8.9 °C 30.1in /  1019.0hPa West 4mph /  6.4km/h 9mph /  14.5km/h 92% 0in /  0.0mm 0 W/m2
05:17 50.2 °F /  10.1 °C 48 °F /  8.9 °C 30.1in /  1019.3hPa West 6mph /  9.7km/h 8mph /  12.9km/h 92% 0in /  0.0mm 0 W/m2
05:22 50.2 °F /  10.1 °C 48 °F /  8.9 °C 30.1in /  1019.3hPa WSW 2mph /  3.2km/h 8mph /  12.9km/h 92% 0in /  0.0mm 0 W/m2
05:27 50.2 °F /  10.1 °C 48 °F /  8.9 °C 30.1in /  1019.3hPa West 6mph /  9.7km/h 6mph /  9.7km/h 92% 0in /  0.0mm 0 W/m2
05:32 50.2 °F /  10.1 °C 48.2 °F /  9 °C 30.1in /  1019.3hPa West 2.9mph /  4.7km/h 8mph /  12.9km/h 93% 0in /  0.0mm 0 W/m2
05:37 50.2 °F /  10.1 °C 48.2 °F /  9 °C 30.1in /  1019.3hPa West 2.9mph /  4.7km/h 6mph /  9.7km/h 93% 0in /  0.0mm 0 W/m2
05:42 50 °F /  10 °C 48 °F /  8.9 °C 30.1in /  1019.3hPa WSW 4mph /  6.4km/h 9mph /  14.5km/h 93% 0in /  0.0mm 0 W/m2
05:47 50 °F /  10 °C 48 °F /  8.9 °C 30.1in /  1019.3hPa West 4mph /  6.4km/h 5mph /  8km/h 93% 0in /  0.0mm 0 W/m2
05:52 49.8 °F /  9.9 °C 47.8 °F /  8.8 °C 30.1in /  1019.3hPa West 4mph /  6.4km/h 6mph /  9.7km/h 93% 0in /  0.0mm 0 W/m2
05:57 49.8 °F /  9.9 °C 47.8 °F /  8.8 °C 30.1in /  1019.3hPa WNW 4.9mph /  7.9km/h 6mph /  9.7km/h 93% 0in /  0.0mm 0 W/m2
06:02 49.8 °F /  9.9 °C 47.8 °F /  8.8 °C 30.1in /  1019.3hPa WSW 4mph /  6.4km/h 7mph /  11.3km/h 93% 0in /  0.0mm 0 W/m2
06:07 49.6 °F /  9.8 °C 47.7 °F /  8.7 °C 30.1in /  1019.3hPa West 6mph /  9.7km/h 7mph /  11.3km/h 93% 0in /  0.0mm 0 W/m2
06:12 49.6 °F /  9.8 °C 47.7 °F /  8.7 °C 30.1in /  1019.3hPa West 4mph /  6.4km/h 6mph /  9.7km/h 93% 0in /  0.0mm 0 W/m2
06:17 49.6 °F /  9.8 °C 48 °F /  8.9 °C 30.1in /  1019.6hPa West 6mph /  9.7km/h 10mph /  16.1km/h 94% 0in /  0.0mm 0 W/m2
06:22 49.6 °F /  9.8 °C 48 °F /  8.9 °C 30.1in /  1019.6hPa WNW 2.9mph /  4.7km/h 4mph /  6.4km/h 94% 0in /  0.0mm 0 W/m2
06:27 49.6 °F /  9.8 °C 48 °F /  8.9 °C 30.1in /  1019.6hPa West 6mph /  9.7km/h 10mph /  16.1km/h 94% 0in /  0.0mm 0 W/m2
06:32 49.6 °F /  9.8 °C 48 °F /  8.9 °C 30.1in /  1019.6hPa WNW 0.9mph /  1.4km/h 7mph /  11.3km/h 94% 0in /  0.0mm 0 W/m2
06:37 49.6 °F /  9.8 °C 48 °F /  8.9 °C 30.1in /  1019.6hPa WNW 4.9mph /  7.9km/h 10mph /  16.1km/h 94% 0in /  0.0mm 0 W/m2
06:42 49.5 °F /  9.7 °C 47.8 °F /  8.8 °C 30.1in /  1019.6hPa West 2.9mph /  4.7km/h 5mph /  8km/h 94% 0in /  0.0mm 0 W/m2
06:47 49.5 °F /  9.7 °C 47.5 °F /  8.6 °C 30.1in /  1020.0hPa WNW 0.9mph /  1.4km/h 3mph /  4.8km/h 93% 0in /  0.0mm 0 W/m2
06:52 49.5 °F /  9.7 °C 47.5 °F /  8.6 °C 30.1in /  1019.6hPa WNW 2.9mph /  4.7km/h 7mph /  11.3km/h 93% 0in /  0.0mm 0 W/m2
06:57 49.5 °F /  9.7 °C 47.5 °F /  8.6 °C 30.1in /  1019.6hPa WNW 2mph /  3.2km/h 4mph /  6.4km/h 93% 0in /  0.0mm 0 W/m2
07:02 49.3 °F /  9.6 °C 47.3 °F /  8.5 °C 30.1in /  1019.6hPa WNW 0.9mph /  1.4km/h 8mph /  12.9km/h 93% 0in /  0.0mm 0 W/m2
07:07 49.3 °F /  9.6 °C 47.3 °F /  8.5 °C 30.1in /  1019.6hPa West 2.9mph /  4.7km/h 6mph /  9.7km/h 93% 0in /  0.0mm 0 W/m2
07:12 49.3 °F /  9.6 °C 47.7 °F /  8.7 °C 30.1in /  1020.0hPa West 4mph /  6.4km/h 8mph /  12.9km/h 94% 0in /  0.0mm 0 W/m2
07:17 49.3 °F /  9.6 °C 47.7 °F /  8.7 °C 30.1in /  1020.0hPa West 6mph /  9.7km/h 6mph /  9.7km/h 94% 0in /  0.0mm 0 W/m2
07:22 49.3 °F /  9.6 °C 47.7 °F /  8.7 °C 30.1in /  1020.0hPa West 6.9mph /  11.1km/h 8mph /  12.9km/h 94% 0in /  0.0mm 0 W/m2
07:27 49.3 °F /  9.6 °C 47.7 °F /  8.7 °C 30.1in /  1020.0hPa SW 4.9mph /  7.9km/h 9mph /  14.5km/h 94% 0in /  0.0mm 0 W/m2
07:32 49.3 °F /  9.6 °C 47.7 °F /  8.7 °C 30.1in /  1020.0hPa West 2.9mph /  4.7km/h 8mph /  12.9km/h 94% 0in /  0.0mm 0 W/m2
07:37 49.3 °F /  9.6 °C 47.7 °F /  8.7 °C 30.1in /  1020.3hPa WNW 6mph /  9.7km/h 9mph /  14.5km/h 94% 0in /  0.0mm 0 W/m2
07:42 49.1 °F /  9.5 °C 47.1 °F /  8.4 °C 30.1in /  1020.3hPa WNW 2.9mph /  4.7km/h 7mph /  11.3km/h 93% 0in /  0.0mm 0 W/m2
07:47 49.1 °F /  9.5 °C 47.1 °F /  8.4 °C 30.1in /  1020.3hPa West 2.9mph /  4.7km/h 6mph /  9.7km/h 93% 0in /  0.0mm 0 W/m2
07:52 48.9 °F /  9.4 °C 46.9 °F /  8.3 °C 30.1in /  1020.3hPa West 4mph /  6.4km/h 7mph /  11.3km/h 93% 0in /  0.0mm 0 W/m2
07:57 48.9 °F /  9.4 °C 46.9 °F /  8.3 °C 30.1in /  1020.7hPa SW 2.9mph /  4.7km/h 7mph /  11.3km/h 93% 0in /  0.0mm 0 W/m2
08:02 48.9 °F /  9.4 °C 46.9 °F /  8.3 °C 30.1in /  1020.7hPa WSW 6mph /  9.7km/h 7mph /  11.3km/h 93% 0in /  0.0mm 5 W/m2
08:07 48.9 °F /  9.4 °C 46.9 °F /  8.3 °C 30.1in /  1020.7hPa NW 4mph /  6.4km/h 6mph /  9.7km/h 93% 0in /  0.0mm 9 W/m2
08:12 48.9 °F /  9.4 °C 46.9 °F /  8.3 °C 30.1in /  1020.7hPa WNW 6.9mph /  11.1km/h 8mph /  12.9km/h 93% 0in /  0.0mm 12 W/m2
08:17 48.9 °F /  9.4 °C 46.9 °F /  8.3 °C 30.1in /  1020.7hPa WNW 2.9mph /  4.7km/h 8mph /  12.9km/h 93% 0in /  0.0mm 16 W/m2
08:22 48.9 °F /  9.4 °C 46.9 °F /  8.3 °C 30.1in /  1020.7hPa WNW 2.9mph /  4.7km/h 6mph /  9.7km/h 93% 0in /  0.0mm 23 W/m2
08:27 48.9 °F /  9.4 °C 46.9 °F /  8.3 °C 30.2in /  1021.0hPa West 2.9mph /  4.7km/h 6mph /  9.7km/h 93% 0in /  0.0mm 25 W/m2
08:32 48.9 °F /  9.4 °C 46.9 °F /  8.3 °C 30.2in /  1021.0hPa NW 4.9mph /  7.9km/h 7mph /  11.3km/h 93% 0in /  0.0mm 26 W/m2
08:37 48.9 °F /  9.4 °C 46.9 °F /  8.3 °C 30.2in /  1021.0hPa WSW 6.9mph /  11.1km/h 8mph /  12.9km/h 93% 0in /  0.0mm 28 W/m2
08:42 48.9 °F /  9.4 °C 46.9 °F /  8.3 °C 30.2in /  1021.0hPa West 2.9mph /  4.7km/h 7mph /  11.3km/h 93% 0in /  0.0mm 32 W/m2
08:47 48.9 °F /  9.4 °C 46.9 °F /  8.3 °C 30.2in /  1021.0hPa West 2mph /  3.2km/h 5mph /  8km/h 93% 0in /  0.0mm 37 W/m2
08:52 48.9 °F /  9.4 °C 46.9 °F /  8.3 °C 30.2in /  1021.0hPa West 2.9mph /  4.7km/h 7mph /  11.3km/h 93% 0in /  0.0mm 42 W/m2
08:58 48.9 °F /  9.4 °C 46.9 °F /  8.3 °C 30.2in /  1021.0hPa West 2.9mph /  4.7km/h 7mph /  11.3km/h 93% 0in /  0.0mm 40 W/m2
09:03 48.7 °F /  9.3 °C 46.8 °F /  8.2 °C 30.2in /  1021.3hPa WSW 4.9mph /  7.9km/h 8mph /  12.9km/h 93% 0in /  0.0mm 37 W/m2
09:08 48.7 °F /  9.3 °C 46.8 °F /  8.2 °C 30.2in /  1021.3hPa West 2.9mph /  4.7km/h 8mph /  12.9km/h 93% 0in /  0.0mm 33 W/m2
09:13 48.7 °F /  9.3 °C 46.8 °F /  8.2 °C 30.2in /  1021.3hPa West 2.9mph /  4.7km/h 8mph /  12.9km/h 93% 0in /  0.0mm 30 W/m2
09:18 48.6 °F /  9.2 °C 46.6 °F /  8.1 °C 30.2in /  1021.3hPa West 2mph /  3.2km/h 7mph /  11.3km/h 93% 0in /  0.0mm 30 W/m2
09:23 48.6 °F /  9.2 °C 46.6 °F /  8.1 °C 30.2in /  1021.3hPa West 2mph /  3.2km/h 4mph /  6.4km/h 93% 0in /  0.0mm 32 W/m2
09:28 48.4 °F /  9.1 °C 46.4 °F /  8 °C 30.2in /  1021.3hPa WNW 2.9mph /  4.7km/h 6mph /  9.7km/h 93% 0in /  0.0mm 53 W/m2
09:33 48.4 °F /  9.1 °C 46.4 °F /  8 °C 30.2in /  1021.7hPa West 2mph /  3.2km/h 6mph /  9.7km/h 93% 0in /  0.0mm 93 W/m2
09:38 48.6 °F /  9.2 °C 46.6 °F /  8.1 °C 30.2in /  1021.7hPa West 2mph /  3.2km/h 7mph /  11.3km/h 93% 0in /  0.0mm 35 W/m2
09:43 48.6 °F /  9.2 °C 46.6 °F /  8.1 °C 30.2in /  1021.7hPa West 4mph /  6.4km/h 10mph /  16.1km/h 93% 0in /  0.0mm 65 W/m2
09:48 48.6 °F /  9.2 °C 46.6 °F /  8.1 °C 30.2in /  1021.7hPa WNW 4.9mph /  7.9km/h 9mph /  14.5km/h 93% 0in /  0.0mm 128 W/m2
09:53 48.7 °F /  9.3 °C 46.8 °F /  8.2 °C 30.2in /  1021.7hPa WNW 4mph /  6.4km/h 10mph /  16.1km/h 93% 0in /  0.0mm 195 W/m2
09:58 48.9 °F /  9.4 °C 46.8 °F /  8.2 °C 30.2in /  1021.7hPa West 6.9mph /  11.1km/h 9mph /  14.5km/h 92% 0in /  0.0mm 221 W/m2
10:03 49.5 °F /  9.7 °C 47.3 °F /  8.5 °C 30.2in /  1021.7hPa WSW 6.9mph /  11.1km/h 8mph /  12.9km/h 92% 0in /  0.0mm 229 W/m2
10:08 49.6 °F /  9.8 °C 47.1 °F /  8.4 °C 30.2in /  1022.0hPa West 2mph /  3.2km/h 11mph /  17.7km/h 91% 0in /  0.0mm 42 W/m2
10:13 49.8 °F /  9.9 °C 47.3 °F /  8.5 °C 30.2in /  1022.0hPa West 4mph /  6.4km/h 9mph /  14.5km/h 91% 0in /  0.0mm 311 W/m2
10:18 49.8 °F /  9.9 °C 46.9 °F /  8.3 °C 30.2in /  1022.0hPa WSW 6.9mph /  11.1km/h 11mph /  17.7km/h 90% 0in /  0.0mm 332 W/m2
10:23 50.4 °F /  10.2 °C 47.5 °F /  8.6 °C 30.2in /  1022.0hPa NW 2.9mph /  4.7km/h 6mph /  9.7km/h 90% 0in /  0.0mm 352 W/m2
10:28 50.4 °F /  10.2 °C 46.9 °F /  8.3 °C 30.2in /  1022.0hPa WNW 2.9mph /  4.7km/h 8mph /  12.9km/h 88% 0in /  0.0mm 336 W/m2
10:33 50.4 °F /  10.2 °C 46.6 °F /  8.1 °C 30.2in /  1022.0hPa West 2.9mph /  4.7km/h 8mph /  12.9km/h 87% 0in /  0.0mm 95 W/m2
10:38 50.5 °F /  10.3 °C 46.8 °F /  8.2 °C 30.2in /  1022.0hPa West 6mph /  9.7km/h 9mph /  14.5km/h 87% 0in /  0.0mm 380 W/m2
10:43 50.7 °F /  10.4 °C 46.9 °F /  8.3 °C 30.2in /  1022.0hPa NW 2mph /  3.2km/h 7mph /  11.3km/h 87% 0in /  0.0mm 403 W/m2
10:48 50.9 °F /  10.5 °C 46.9 °F /  8.3 °C 30.2in /  1022.0hPa WSW 2.9mph /  4.7km/h 9mph /  14.5km/h 86% 0in /  0.0mm 392 W/m2
10:53 50.7 °F /  10.4 °C 46.8 °F /  8.2 °C 30.2in /  1022.4hPa NW 4mph /  6.4km/h 9mph /  14.5km/h 86% 0in /  0.0mm 413 W/m2
10:58 50.7 °F /  10.4 °C 46.4 °F /  8 °C 30.2in /  1022.0hPa West 2.9mph /  4.7km/h 9mph /  14.5km/h 85% 0in /  0.0mm 410 W/m2
11:03 50.9 °F /  10.5 °C 46.2 °F /  7.9 °C 30.2in /  1022.4hPa WNW 4mph /  6.4km/h 9mph /  14.5km/h 84% 0in /  0.0mm 441 W/m2
11:08 51.1 °F /  10.6 °C 46.4 °F /  8 °C 30.2in /  1022.4hPa WNW 4.9mph /  7.9km/h 7mph /  11.3km/h 84% 0in /  0.0mm 427 W/m2
11:13 51.4 °F /  10.8 °C 46.2 °F /  7.9 °C 30.2in /  1022.4hPa West 2.9mph /  4.7km/h 9mph /  14.5km/h 82% 0in /  0.0mm 461 W/m2
11:18 51.6 °F /  10.9 °C 46.2 °F /  7.9 °C 30.2in /  1022.4hPa WNW 4.9mph /  7.9km/h 5mph /  8km/h 82% 0in /  0.0mm 461 W/m2
11:23 51.6 °F /  10.9 °C 46 °F /  7.8 °C 30.2in /  1022.4hPa NW 6.9mph /  11.1km/h 10mph /  16.1km/h 81% 0in /  0.0mm 60 W/m2
11:28 51.3 °F /  10.7 °C 45 °F /  7.2 °C 30.2in /  1022.4hPa WNW 4mph /  6.4km/h 5mph /  8km/h 79% 0in /  0.0mm 60 W/m2
11:33 51.3 °F /  10.7 °C 45.7 °F /  7.6 °C 30.2in /  1022.4hPa WSW 4mph /  6.4km/h 9mph /  14.5km/h 81% 0in /  0.0mm 506 W/m2
11:38 52 °F /  11.1 °C 46 °F /  7.8 °C 30.2in /  1022.4hPa NW 4mph /  6.4km/h 8mph /  12.9km/h 80% 0in /  0.0mm 529 W/m2
11:43 52 °F /  11.1 °C 45.7 °F /  7.6 °C 30.2in /  1022.4hPa NW 4.9mph /  7.9km/h 10mph /  16.1km/h 79% 0in /  0.0mm 527 W/m2
11:48 52 °F /  11.1 °C 45.7 °F /  7.6 °C 30.2in /  1022.4hPa WSW 4.9mph /  7.9km/h 9mph /  14.5km/h 79% 0in /  0.0mm 573 W/m2
11:53 52.2 °F /  11.2 °C 45.9 °F /  7.7 °C 30.2in /  1022.4hPa NW 4mph /  6.4km/h 10mph /  16.1km/h 79% 0in /  0.0mm 492 W/m2
11:58 52.5 °F /  11.4 °C 45.1 °F /  7.3 °C 30.2in /  1022.4hPa West 2mph /  3.2km/h 12mph /  19.3km/h 76% 0in /  0.0mm 360 W/m2
12:03 52.3 °F /  11.3 °C 44.6 °F /  7 °C 30.2in /  1022.4hPa West 10.1mph /  16.3km/h 11mph /  17.7km/h 75% 0in /  0.0mm 69 W/m2
12:08 51.8 °F /  11 °C 45.1 °F /  7.3 °C 30.2in /  1022.4hPa WNW 2.9mph /  4.7km/h 12mph /  19.3km/h 78% 0in /  0.0mm 81 W/m2
12:13 51.6 °F /  10.9 °C 44.6 °F /  7 °C 30.2in /  1022.4hPa WSW 2.9mph /  4.7km/h 8mph /  12.9km/h 77% 0in /  0.0mm 155 W/m2
12:18 51.8 °F /  11 °C 45.5 °F /  7.5 °C 30.2in /  1022.4hPa NW 2.9mph /  4.7km/h 5mph /  8km/h 79% 0in /  0.0mm 104 W/m2
12:23 52.2 °F /  11.2 °C 45.5 °F /  7.5 °C 30.2in /  1022.4hPa WSW 4mph /  6.4km/h 9mph /  14.5km/h 78% 0in /  0.0mm 125 W/m2
12:28 52.5 °F /  11.4 °C 45.9 °F /  7.7 °C 30.2in /  1022.4hPa WNW 4mph /  6.4km/h 11mph /  17.7km/h 78% 0in /  0.0mm 171 W/m2
12:33 53.1 °F /  11.7 °C 45.7 °F /  7.6 °C 30.2in /  1022.7hPa WSW 6.9mph /  11.1km/h 9mph /  14.5km/h 76% 0in /  0.0mm 311 W/m2
12:38 53.4 °F /  11.9 °C 45.3 °F /  7.4 °C 30.2in /  1022.4hPa WNW 2.9mph /  4.7km/h 11mph /  17.7km/h 74% 0in /  0.0mm 668 W/m2
12:43 54 °F /  12.2 °C 46.2 °F /  7.9 °C 30.2in /  1022.4hPa WSW 4mph /  6.4km/h 8mph /  12.9km/h 75% 0in /  0.0mm 671 W/m2
12:48 54.1 °F /  12.3 °C 46 °F /  7.8 °C 30.2in /  1022.7hPa West 4mph /  6.4km/h 10mph /  16.1km/h 74% 0in /  0.0mm 664 W/m2
12:53 54.1 °F /  12.3 °C 45.7 °F /  7.6 °C 30.2in /  1022.7hPa West 4mph /  6.4km/h 9mph /  14.5km/h 73% 0in /  0.0mm 621 W/m2
12:58 54.1 °F /  12.3 °C 45.7 °F /  7.6 °C 30.2in /  1022.7hPa WNW 8.1mph /  13km/h 9mph /  14.5km/h 73% 0in /  0.0mm 596 W/m2
13:03 54 °F /  12.2 °C 45.9 °F /  7.7 °C 30.2in /  1022.7hPa West 6mph /  9.7km/h 7mph /  11.3km/h 74% 0in /  0.0mm 599 W/m2
13:08 54.3 °F /  12.4 °C 45.9 °F /  7.7 °C 30.2in /  1022.7hPa WNW 4mph /  6.4km/h 11mph /  17.7km/h 73% 0in /  0.0mm 671 W/m2
13:13 54.3 °F /  12.4 °C 45.5 °F /  7.5 °C 30.2in /  1022.7hPa West 6.9mph /  11.1km/h 10mph /  16.1km/h 72% 0in /  0.0mm 737 W/m2
13:18 54.7 °F /  12.6 °C 46.2 °F /  7.9 °C 30.2in /  1022.7hPa West 6mph /  9.7km/h 6mph /  9.7km/h 73% 0in /  0.0mm 715 W/m2
13:23 54.7 °F /  12.6 °C 44.2 °F /  6.8 °C 30.2in /  1022.7hPa WSW 4.9mph /  7.9km/h 7mph /  11.3km/h 68% 0in /  0.0mm 668 W/m2
13:29 54.9 °F /  12.7 °C 45 °F /  7.2 °C 30.2in /  1022.7hPa West 2.9mph /  4.7km/h 11mph /  17.7km/h 69% 0in /  0.0mm 628 W/m2
13:34 54.9 °F /  12.7 °C 45 °F /  7.2 °C 30.2in /  1022.7hPa NNW 4mph /  6.4km/h 10mph /  16.1km/h 69% 0in /  0.0mm 603 W/m2
13:39 54.7 °F /  12.6 °C 43.9 °F /  6.6 °C 30.2in /  1022.7hPa NW 8.1mph /  13km/h 11mph /  17.7km/h 67% 0in /  0.0mm 72 W/m2
13:44 54.1 °F /  12.3 °C 43 °F /  6.1 °C 30.2in /  1022.7hPa West 2.9mph /  4.7km/h 10mph /  16.1km/h 66% 0in /  0.0mm 599 W/m2
13:49 54.1 °F /  12.3 °C 42.6 °F /  5.9 °C 30.2in /  1022.7hPa WSW 6mph /  9.7km/h 10mph /  16.1km/h 65% 0in /  0.0mm 125 W/m2
13:54 54.1 °F /  12.3 °C 42.3 °F /  5.7 °C 30.2in /  1022.7hPa West 4mph /  6.4km/h 10mph /  16.1km/h 64% 0in /  0.0mm 91 W/m2
13:59 54.3 °F /  12.4 °C 42.4 °F /  5.8 °C 30.2in /  1022.7hPa WNW 6.9mph /  11.1km/h 9mph /  14.5km/h 64% 0in /  0.0mm 76 W/m2
14:04 54.1 °F /  12.3 °C 42.3 °F /  5.7 °C 30.2in /  1022.7hPa West 8.1mph /  13km/h 10mph /  16.1km/h 64% 0in /  0.0mm 63 W/m2
14:09 53.8 °F /  12.1 °C 42.3 °F /  5.7 °C 30.2in /  1022.7hPa WNW 4mph /  6.4km/h 7mph /  11.3km/h 65% 0in /  0.0mm 51 W/m2
14:14 53.8 °F /  12.1 °C 42.3 °F /  5.7 °C 30.2in /  1022.4hPa WNW 2.9mph /  4.7km/h 11mph /  17.7km/h 65% 0in /  0.0mm 58 W/m2
14:19 54.1 °F /  12.3 °C 43 °F /  6.1 °C 30.2in /  1022.4hPa NW 2mph /  3.2km/h 9mph /  14.5km/h 66% 0in /  0.0mm 83 W/m2
14:24 54.5 °F /  12.5 °C 43 °F /  6.1 °C 30.2in /  1022.4hPa NW 2.9mph /  4.7km/h 11mph /  17.7km/h 65% 0in /  0.0mm 90 W/m2
14:29 54.1 °F /  12.3 °C 42.6 °F /  5.9 °C 30.2in /  1022.4hPa WNW 2mph /  3.2km/h 8mph /  12.9km/h 65% 0in /  0.0mm 98 W/m2
14:34 54 °F /  12.2 °C 42.8 °F /  6 °C 30.2in /  1022.4hPa West 2.9mph /  4.7km/h 10mph /  16.1km/h 66% 0in /  0.0mm 151 W/m2
14:39 54.3 °F /  12.4 °C 43.2 °F /  6.2 °C 30.2in /  1022.4hPa West 8.1mph /  13km/h 11mph /  17.7km/h 66% 0in /  0.0mm 84 W/m2
14:44 54.3 °F /  12.4 °C 43.2 °F /  6.2 °C 30.2in /  1022.4hPa West 4mph /  6.4km/h 10mph /  16.1km/h 66% 0in /  0.0mm 97 W/m2
14:49 54.1 °F /  12.3 °C 43 °F /  6.1 °C 30.2in /  1022.4hPa West 4mph /  6.4km/h 7mph /  11.3km/h 66% 0in /  0.0mm 90 W/m2
14:54 54 °F /  12.2 °C 42.4 °F /  5.8 °C 30.2in /  1022.4hPa WNW 2mph /  3.2km/h 11mph /  17.7km/h 65% 0in /  0.0mm 130 W/m2
14:59 53.8 °F /  12.1 °C 41.9 °F /  5.5 °C 30.2in /  1022.4hPa WNW 6.9mph /  11.1km/h 9mph /  14.5km/h 64% 0in /  0.0mm 139 W/m2
15:04 54.1 °F /  12.3 °C 41.4 °F /  5.2 °C 30.2in /  1022.4hPa NW 4mph /  6.4km/h 11mph /  17.7km/h 62% 0in /  0.0mm 114 W/m2
15:09 54.9 °F /  12.7 °C 41.2 °F /  5.1 °C 30.2in /  1022.4hPa West 4mph /  6.4km/h 12mph /  19.3km/h 60% 0in /  0.0mm 399 W/m2
15:14 55 °F /  12.8 °C 41.9 °F /  5.5 °C 30.2in /  1022.4hPa WNW 4.9mph /  7.9km/h 11mph /  17.7km/h 61% 0in /  0.0mm 381 W/m2
15:19 55 °F /  12.8 °C 40.1 °F /  4.5 °C 30.2in /  1022.4hPa WSW 6.9mph /  11.1km/h 14mph /  22.5km/h 57% 0in /  0.0mm 520 W/m2
15:24 55 °F /  12.8 °C 41 °F /  5 °C 30.2in /  1022.4hPa WNW 2.9mph /  4.7km/h 11mph /  17.7km/h 59% 0in /  0.0mm 431 W/m2
15:29 55 °F /  12.8 °C 41.4 °F /  5.2 °C 30.2in /  1022.4hPa WNW 8.9mph /  14.3km/h 14mph /  22.5km/h 60% 0in /  0.0mm 406 W/m2
15:34 55 °F /  12.8 °C 40.5 °F /  4.7 °C 30.2in /  1022.0hPa WSW 4.9mph /  7.9km/h 12mph /  19.3km/h 58% 0in /  0.0mm 478 W/m2
15:39 55 °F /  12.8 °C 39.6 °F /  4.2 °C 30.2in /  1022.0hPa WSW 4mph /  6.4km/h 10mph /  16.1km/h 56% 0in /  0.0mm 406 W/m2
15:44 55.4 °F /  13 °C 40.8 °F /  4.9 °C 30.2in /  1022.0hPa NW 8.9mph /  14.3km/h 10mph /  16.1km/h 58% 0in /  0.0mm 163 W/m2
15:49 55 °F /  12.8 °C 41 °F /  5 °C 30.2in /  1022.0hPa WNW 4.9mph /  7.9km/h 9mph /  14.5km/h 59% 0in /  0.0mm 49 W/m2
15:54 54.3 °F /  12.4 °C 40.8 °F /  4.9 °C 30.2in /  1022.0hPa SW 4.9mph /  7.9km/h 10mph /  16.1km/h 60% 0in /  0.0mm 323 W/m2
15:59 54.1 °F /  12.3 °C 41.4 °F /  5.2 °C 30.2in /  1022.0hPa West 4mph /  6.4km/h 7mph /  11.3km/h 62% 0in /  0.0mm 424 W/m2
16:04 54.1 °F /  12.3 °C 41.4 °F /  5.2 °C 30.2in /  1022.0hPa SW 4.9mph /  7.9km/h 7mph /  11.3km/h 62% 0in /  0.0mm 418 W/m2
16:09 54.3 °F /  12.4 °C 39.9 °F /  4.4 °C 30.2in /  1022.0hPa WNW 4.9mph /  7.9km/h 10mph /  16.1km/h 58% 0in /  0.0mm 406 W/m2
16:14 54.9 °F /  12.7 °C 40.8 °F /  4.9 °C 30.2in /  1022.0hPa NNW 6mph /  9.7km/h 11mph /  17.7km/h 59% 0in /  0.0mm 432 W/m2
16:19 54.9 °F /  12.7 °C 40.8 °F /  4.9 °C 30.2in /  1022.0hPa WNW 4.9mph /  7.9km/h 9mph /  14.5km/h 59% 0in /  0.0mm 392 W/m2
16:24 54.9 °F /  12.7 °C 40.3 °F /  4.6 °C 30.2in /  1022.0hPa West 4mph /  6.4km/h 10mph /  16.1km/h 58% 0in /  0.0mm 355 W/m2
16:29 54.3 °F /  12.4 °C 39.9 °F /  4.4 °C 30.2in /  1022.0hPa WSW 8.9mph /  14.3km/h 10mph /  16.1km/h 58% 0in /  0.0mm 53 W/m2
16:34 54 °F /  12.2 °C 40.8 °F /  4.9 °C 30.2in /  1022.0hPa WSW 10.1mph /  16.3km/h 10mph /  16.1km/h 61% 0in /  0.0mm 42 W/m2
16:39 53.6 °F /  12 °C 41.7 °F /  5.4 °C 30.2in /  1022.0hPa WSW 4.9mph /  7.9km/h 6mph /  9.7km/h 64% 0in /  0.0mm 338 W/m2
16:44 53.4 °F /  11.9 °C 41.2 °F /  5.1 °C 30.2in /  1022.0hPa West 6.9mph /  11.1km/h 14mph /  22.5km/h 63% 0in /  0.0mm 320 W/m2
16:49 53.8 °F /  12.1 °C 41 °F /  5 °C 30.2in /  1022.0hPa West 6.9mph /  11.1km/h 9mph /  14.5km/h 62% 0in /  0.0mm 320 W/m2
16:54 53.6 °F /  12 °C 40.5 °F /  4.7 °C 30.2in /  1022.0hPa West 4mph /  6.4km/h 14mph /  22.5km/h 61% 0in /  0.0mm 42 W/m2
16:59 53.4 °F /  11.9 °C 40.6 °F /  4.8 °C 30.2in /  1022.0hPa WSW 2.9mph /  4.7km/h 7mph /  11.3km/h 62% 0in /  0.0mm 288 W/m2
17:04 53.2 °F /  11.8 °C 40.6 °F /  4.8 °C 30.2in /  1022.0hPa NW 4mph /  6.4km/h 12mph /  19.3km/h 62% 0in /  0.0mm 185 W/m2
17:09 53.2 °F /  11.8 °C 40.1 °F /  4.5 °C 30.2in /  1021.7hPa West 2mph /  3.2km/h 9mph /  14.5km/h 61% 0in /  0.0mm 51 W/m2
17:14 53.4 °F /  11.9 °C 40.6 °F /  4.8 °C 30.2in /  1021.7hPa WSW 2.9mph /  4.7km/h 12mph /  19.3km/h 62% 0in /  0.0mm 42 W/m2
17:19 53.4 °F /  11.9 °C 41.2 °F /  5.1 °C 30.2in /  1021.7hPa WNW 4.9mph /  7.9km/h 7mph /  11.3km/h 63% 0in /  0.0mm 54 W/m2
17:24 53.2 °F /  11.8 °C 41 °F /  5 °C 30.2in /  1021.7hPa WSW 2.9mph /  4.7km/h 8mph /  12.9km/h 63% 0in /  0.0mm 42 W/m2
17:29 53.1 °F /  11.7 °C 40.5 °F /  4.7 °C 30.2in /  1021.7hPa WNW 2mph /  3.2km/h 9mph /  14.5km/h 62% 0in /  0.0mm 32 W/m2
17:34 52.9 °F /  11.6 °C 39.7 °F /  4.3 °C 30.2in /  1021.7hPa West 2.9mph /  4.7km/h 7mph /  11.3km/h 61% 0in /  0.0mm 30 W/m2
17:39 52.5 °F /  11.4 °C 39.4 °F /  4.1 °C 30.2in /  1021.7hPa West 2.9mph /  4.7km/h 5mph /  8km/h 61% 0in /  0.0mm 28 W/m2
17:44 52.3 °F /  11.3 °C 39.7 °F /  4.3 °C 30.2in /  1021.7hPa West 4mph /  6.4km/h 4mph /  6.4km/h 62% 0in /  0.0mm 26 W/m2
17:49 52.2 °F /  11.2 °C 39.9 °F /  4.4 °C 30.2in /  1021.7hPa West 4mph /  6.4km/h 7mph /  11.3km/h 63% 0in /  0.0mm 25 W/m2
17:54 52.2 °F /  11.2 °C 40.3 °F /  4.6 °C 30.2in /  1021.7hPa WSW 0.9mph /  1.4km/h 5mph /  8km/h 64% 0in /  0.0mm 23 W/m2
17:59 52 °F /  11.1 °C 40.1 °F /  4.5 °C 30.2in /  1021.7hPa SW 2.9mph /  4.7km/h 6mph /  9.7km/h 64% 0in /  0.0mm 23 W/m2
18:04 52 °F /  11.1 °C 40.1 °F /  4.5 °C 30.2in /  1021.7hPa West 2mph /  3.2km/h 6mph /  9.7km/h 64% 0in /  0.0mm 21 W/m2
18:09 51.6 °F /  10.9 °C 40.6 °F /  4.8 °C 30.2in /  1021.7hPa WSW 4mph /  6.4km/h 5mph /  8km/h 66% 0in /  0.0mm 23 W/m2
18:14 51.4 °F /  10.8 °C 40.5 °F /  4.7 °C 30.2in /  1021.7hPa WSW 0.9mph /  1.4km/h 5mph /  8km/h 66% 0in /  0.0mm 23 W/m2
18:19 51.3 °F /  10.7 °C 40.6 °F /  4.8 °C 30.2in /  1021.7hPa WSW 2mph /  3.2km/h 5mph /  8km/h 67% 0in /  0.0mm 23 W/m2
18:24 51.1 °F /  10.6 °C 41.2 °F /  5.1 °C 30.2in /  1021.7hPa WSW 0.9mph /  1.4km/h 3mph /  4.8km/h 69% 0in /  0.0mm 21 W/m2
18:29 50.9 °F /  10.5 °C 40.3 °F /  4.6 °C 30.2in /  1021.7hPa WNW 2.9mph /  4.7km/h 6mph /  9.7km/h 67% 0in /  0.0mm 23 W/m2
18:34 50.7 °F /  10.4 °C 40.5 °F /  4.7 °C 30.2in /  1021.7hPa Calm   3mph /  4.8km/h 68% 0in /  0.0mm 21 W/m2
18:39 50.5 °F /  10.3 °C 40.8 °F /  4.9 °C 30.2in /  1021.7hPa WSW 0.9mph /  1.4km/h 4mph /  6.4km/h 69% 0in /  0.0mm 16 W/m2
18:44 50.4 °F /  10.2 °C 41.7 °F /  5.4 °C 30.2in /  1021.7hPa Calm   1mph /  1.6km/h 72% 0in /  0.0mm 11 W/m2
18:49 50.2 °F /  10.1 °C 42.3 °F /  5.7 °C 30.2in /  1021.7hPa Calm   1mph /  1.6km/h 74% 0in /  0.0mm 7 W/m2
18:54 49.6 °F /  9.8 °C 42.1 °F /  5.6 °C 30.2in /  1021.7hPa Calm   1mph /  1.6km/h 75% 0in /  0.0mm 0 W/m2
18:59 49.3 °F /  9.6 °C 42.1 °F /  5.6 °C 30.2in /  1021.7hPa Calm   2mph /  3.2km/h 76% 0in /  0.0mm 0 W/m2
19:04 48.7 °F /  9.3 °C 42.3 °F /  5.7 °C 30.2in /  1021.7hPa WSW 0.9mph /  1.4km/h 2mph /  3.2km/h 78% 0in /  0.0mm 0 W/m2
19:09 48.4 °F /  9.1 °C 42.3 °F /  5.7 °C 30.2in /  1021.7hPa WSW 0.9mph /  1.4km/h 2mph /  3.2km/h 79% 0in /  0.0mm 0 W/m2
19:14 47.8 °F /  8.8 °C 41.7 °F /  5.4 °C 30.2in /  1021.7hPa WSW 0.9mph /  1.4km/h 2mph /  3.2km/h 79% 0in /  0.0mm 0 W/m2
19:19 47.7 °F /  8.7 °C 41.5 °F /  5.3 °C 30.2in /  1021.7hPa Calm   3mph /  4.8km/h 79% 0in /  0.0mm 0 W/m2
19:24 47.8 °F /  8.8 °C 41.9 °F /  5.5 °C 30.2in /  1021.7hPa Calm   2mph /  3.2km/h 80% 0in /  0.0mm 0 W/m2
19:29 47.8 °F /  8.8 °C 41.9 °F /  5.5 °C 30.2in /  1021.7hPa Calm   1mph /  1.6km/h 80% 0in /  0.0mm 0 W/m2
19:35 47.7 °F /  8.7 °C 41.7 °F /  5.4 °C 30.2in /  1021.7hPa Calm   3mph /  4.8km/h 80% 0in /  0.0mm 0 W/m2
19:40 47.7 °F /  8.7 °C 41.7 °F /  5.4 °C 30.2in /  1021.7hPa SW 0.9mph /  1.4km/h 3mph /  4.8km/h 80% 0in /  0.0mm 0 W/m2
19:45 47.5 °F /  8.6 °C 41.5 °F /  5.3 °C 30.2in /  1021.7hPa Calm   2mph /  3.2km/h 80% 0in /  0.0mm 0 W/m2
19:50 47.5 °F /  8.6 °C 41.4 °F /  5.2 °C 30.2in /  1021.7hPa Calm   3mph /  4.8km/h 79% 0in /  0.0mm 0 W/m2
19:55 47.5 °F /  8.6 °C 41.4 °F /  5.2 °C 30.2in /  1021.7hPa NW 4mph /  6.4km/h 6mph /  9.7km/h 79% 0in /  0.0mm 0 W/m2
20:00 47.7 °F /  8.7 °C 41.2 °F /  5.1 °C 30.2in /  1021.7hPa WSW 0.9mph /  1.4km/h 3mph /  4.8km/h 78% 0in /  0.0mm 0 W/m2
20:05 47.7 °F /  8.7 °C 40.8 °F /  4.9 °C 30.2in /  1021.7hPa WSW 0.9mph /  1.4km/h 4mph /  6.4km/h 77% 0in /  0.0mm 0 W/m2
20:10 47.8 °F /  8.8 °C 41 °F /  5 °C 30.2in /  1021.7hPa West 0.9mph /  1.4km/h 3mph /  4.8km/h 77% 0in /  0.0mm 0 W/m2
20:15 47.8 °F /  8.8 °C 40.6 °F /  4.8 °C 30.2in /  1021.7hPa WSW 0.9mph /  1.4km/h 3mph /  4.8km/h 76% 0in /  0.0mm 0 W/m2
20:20 48 °F /  8.9 °C 40.5 °F /  4.7 °C 30.2in /  1021.7hPa WSW 4.9mph /  7.9km/h 5mph /  8km/h 75% 0in /  0.0mm 0 W/m2
20:25 48.2 °F /  9 °C 41 °F /  5 °C 30.2in /  1021.7hPa West 2mph /  3.2km/h 4mph /  6.4km/h 76% 0in /  0.0mm 0 W/m2
20:30 48 °F /  8.9 °C 40.5 °F /  4.7 °C 30.2in /  1021.7hPa West 2.9mph /  4.7km/h 8mph /  12.9km/h 75% 0in /  0.0mm 0 W/m2
20:35 48.2 °F /  9 °C 40.6 °F /  4.8 °C 30.2in /  1021.7hPa West 0.9mph /  1.4km/h 6mph /  9.7km/h 75% 0in /  0.0mm 0 W/m2
20:40 48 °F /  8.9 °C 40.8 °F /  4.9 °C 30.2in /  1021.7hPa West 2mph /  3.2km/h 8mph /  12.9km/h 76% 0in /  0.0mm 0 W/m2
20:45 47.8 °F /  8.8 °C 40.6 °F /  4.8 °C 30.2in /  1021.7hPa West 2.9mph /  4.7km/h 4mph /  6.4km/h 76% 0in /  0.0mm 0 W/m2
20:50 47.8 °F /  8.8 °C 40.6 °F /  4.8 °C 30.2in /  1021.7hPa NW 2mph /  3.2km/h 5mph /  8km/h 76% 0in /  0.0mm 0 W/m2
20:55 47.8 °F /  8.8 °C 40.6 °F /  4.8 °C 30.2in /  1021.7hPa WNW 0.9mph /  1.4km/h 2mph /  3.2km/h 76% 0in /  0.0mm 0 W/m2
21:00 47.8 °F /  8.8 °C 40.6 °F /  4.8 °C 30.2in /  1021.7hPa SW 2mph /  3.2km/h 5mph /  8km/h 76% 0in /  0.0mm 0 W/m2
21:05 47.8 °F /  8.8 °C 40.6 °F /  4.8 °C 30.2in /  1021.7hPa West 0.9mph /  1.4km/h 2mph /  3.2km/h 76% 0in /  0.0mm 0 W/m2
21:10 47.7 °F /  8.7 °C 41.2 °F /  5.1 °C 30.2in /  1021.7hPa Calm   3mph /  4.8km/h 78% 0in /  0.0mm 0 W/m2
21:15 47.5 °F /  8.6 °C 41 °F /  5 °C 30.2in /  1021.7hPa WNW 4mph /  6.4km/h 5mph /  8km/h 78% 0in /  0.0mm 0 W/m2
21:20 47.3 °F /  8.5 °C 41.2 °F /  5.1 °C 30.2in /  1021.7hPa Calm   2mph /  3.2km/h 79% 0in /  0.0mm 0 W/m2
21:25 47.1 °F /  8.4 °C 40.6 °F /  4.8 °C 30.2in /  1021.7hPa Calm   1mph /  1.6km/h 78% 0in /  0.0mm 0 W/m2
21:30 46.9 °F /  8.3 °C 41.2 °F /  5.1 °C 30.2in /  1021.7hPa Calm   2mph /  3.2km/h 80% 0in /  0.0mm 0 W/m2
21:35 46.6 °F /  8.1 °C 41 °F /  5 °C 30.2in /  1021.7hPa West 0.9mph /  1.4km/h 3mph /  4.8km/h 81% 0in /  0.0mm 0 W/m2
21:41 46.2 °F /  7.9 °C 41 °F /  5 °C 30.2in /  1021.7hPa WSW 0.9mph /  1.4km/h 3mph /  4.8km/h 82% 0in /  0.0mm 0 W/m2
21:46 46.2 °F /  7.9 °C 41 °F /  5 °C 30.2in /  1021.7hPa Calm     82% 0in /  0.0mm 0 W/m2
21:51 45.9 °F /  7.7 °C 41 °F /  5 °C 30.2in /  1021.7hPa Calm   3mph /  4.8km/h 83% 0in /  0.0mm 0 W/m2
21:56 45.7 °F /  7.6 °C 41.2 °F /  5.1 °C 30.2in /  1021.7hPa SW 0.9mph /  1.4km/h 4mph /  6.4km/h 84% 0in /  0.0mm 0 W/m2
22:01 45.5 °F /  7.5 °C 40.6 °F /  4.8 °C 30.2in /  1021.7hPa Calm   3mph /  4.8km/h 83% 0in /  0.0mm 0 W/m2
22:06 45.7 °F /  7.6 °C 40.8 °F /  4.9 °C 30.2in /  1021.7hPa West 2.9mph /  4.7km/h 6mph /  9.7km/h 83% 0in /  0.0mm 0 W/m2
22:11 46 °F /  7.8 °C 40.8 °F /  4.9 °C 30.2in /  1021.7hPa Calm   3mph /  4.8km/h 82% 0in /  0.0mm 0 W/m2
22:16 46.2 °F /  7.9 °C 40.6 °F /  4.8 °C 30.2in /  1021.7hPa WSW 0.9mph /  1.4km/h 3mph /  4.8km/h 81% 0in /  0.0mm 0 W/m2
22:21 46.2 °F /  7.9 °C 40.6 °F /  4.8 °C 30.2in /  1021.3hPa WSW 0.9mph /  1.4km/h 2mph /  3.2km/h 81% 0in /  0.0mm 0 W/m2
22:26 46.2 °F /  7.9 °C 40.6 °F /  4.8 °C 30.2in /  1021.3hPa WSW 2mph /  3.2km/h 3mph /  4.8km/h 81% 0in /  0.0mm 0 W/m2
22:31 46.2 °F /  7.9 °C 40.6 °F /  4.8 °C 30.2in /  1021.3hPa WNW 0.9mph /  1.4km/h 4mph /  6.4km/h 81% 0in /  0.0mm 0 W/m2
22:36 46.2 °F /  7.9 °C 40.6 °F /  4.8 °C 30.2in /  1021.3hPa NW 2mph /  3.2km/h 9mph /  14.5km/h 81% 0in /  0.0mm 0 W/m2
22:41 46.2 °F /  7.9 °C 40.6 °F /  4.8 °C 30.2in /  1021.3hPa WSW 2mph /  3.2km/h 6mph /  9.7km/h 81% 0in /  0.0mm 0 W/m2
22:46 46.4 °F /  8 °C 40.8 °F /  4.9 °C 30.2in /  1021.3hPa WSW 2.9mph /  4.7km/h 9mph /  14.5km/h 81% 0in /  0.0mm 0 W/m2
22:51 46.6 °F /  8.1 °C 41 °F /  5 °C 30.2in /  1021.3hPa WNW 4mph /  6.4km/h 7mph /  11.3km/h 81% 0in /  0.0mm 0 W/m2
22:56 46.6 °F /  8.1 °C 41 °F /  5 °C 30.2in /  1021.3hPa SW 4.9mph /  7.9km/h 6mph /  9.7km/h 81% 0in /  0.0mm 0 W/m2
23:01 46.4 °F /  8 °C 40.8 °F /  4.9 °C 30.2in /  1021.3hPa WSW 2mph /  3.2km/h 5mph /  8km/h 81% 0in /  0.0mm 0 W/m2
23:06 46.2 °F /  7.9 °C 40.6 °F /  4.8 °C 30.2in /  1021.3hPa SW 2mph /  3.2km/h 8mph /  12.9km/h 81% 0in /  0.0mm 0 W/m2
23:11 46.2 °F /  7.9 °C 40.6 °F /  4.8 °C 30.2in /  1021.3hPa West 2.9mph /  4.7km/h 8mph /  12.9km/h 81% 0in /  0.0mm 0 W/m2
23:16 46.2 °F /  7.9 °C 41 °F /  5 °C 30.2in /  1021.3hPa WNW 2.9mph /  4.7km/h 6mph /  9.7km/h 82% 0in /  0.0mm 0 W/m2
23:21 46.2 °F /  7.9 °C 41 °F /  5 °C 30.2in /  1021.3hPa SW 4mph /  6.4km/h 8mph /  12.9km/h 82% 0in /  0.0mm 0 W/m2
23:26 46.2 °F /  7.9 °C 41 °F /  5 °C 30.2in /  1021.3hPa West 2mph /  3.2km/h 6mph /  9.7km/h 82% 0in /  0.0mm 0 W/m2
23:31 46.4 °F /  8 °C 41.2 °F /  5.1 °C 30.2in /  1021.3hPa West 2mph /  3.2km/h 9mph /  14.5km/h 82% 0in /  0.0mm 0 W/m2
23:36 46.4 °F /  8 °C 41.2 °F /  5.1 °C 30.2in /  1021.3hPa West 2.9mph /  4.7km/h 7mph /  11.3km/h 82% 0in /  0.0mm 0 W/m2
23:41 46.2 °F /  7.9 °C 41 °F /  5 °C 30.2in /  1021.0hPa WSW 2mph /  3.2km/h 6mph /  9.7km/h 82% 0in /  0.0mm 0 W/m2
23:46 46.2 °F /  7.9 °C 41 °F /  5 °C 30.2in /  1021.0hPa West 8.1mph /  13km/h 10mph /  16.1km/h 82% 0in /  0.0mm 0 W/m2
23:51 46 °F /  7.8 °C 40.8 °F /  4.9 °C 30.2in /  1021.0hPa West 2.9mph /  4.7km/h 6mph /  9.7km/h 82% 0in /  0.0mm 0 W/m2
23:56 46 °F /  7.8 °C 41.2 °F /  5.1 °C 30.2in /  1021.0hPa WSW 2mph /  3.2km/h 10mph /  16.1km/h 83% 0in /  0.0mm 0 W/m2
Juneau County Weather
Compliments of Weather Underground - 2 mb